createdAt,value
2017-07-24T00:00:39.410Z,81.70
2017-07-24T00:03:13.002Z,81.40
2017-07-24T00:05:46.573Z,81.00
2017-07-24T00:08:20.172Z,80.60
2017-07-24T00:10:53.842Z,80.90
2017-07-24T00:13:27.403Z,80.90
2017-07-24T00:16:01.042Z,80.30
2017-07-24T00:18:34.600Z,81.40
2017-07-24T00:21:08.234Z,82.50
2017-07-24T00:23:41.767Z,83.10
2017-07-24T00:26:15.443Z,82.30
2017-07-24T00:28:49.031Z,81.50
2017-07-24T00:31:23.545Z,81.00
2017-07-24T00:33:57.048Z,81.00
2017-07-24T00:36:30.682Z,81.50
2017-07-24T00:39:04.281Z,82.60
2017-07-24T00:41:37.843Z,83.70
2017-07-24T00:44:11.426Z,84.10
2017-07-24T00:46:44.956Z,84.80
2017-07-24T00:49:18.626Z,85.60
2017-07-24T00:51:52.275Z,86.20
2017-07-24T00:54:25.880Z,85.80
2017-07-24T00:56:59.601Z,84.40
2017-07-24T00:59:33.969Z,82.80
2017-07-24T01:02:07.705Z,83.10
2017-07-24T01:04:41.247Z,84.70
2017-07-24T01:07:14.849Z,83.30
2017-07-24T01:09:49.195Z,83.50
2017-07-24T01:12:22.829Z,83.60
2017-07-24T01:14:56.377Z,83.30
2017-07-24T01:17:29.965Z,82.80
2017-07-24T01:20:04.313Z,84.30
2017-07-24T01:22:37.956Z,84.20
2017-07-24T01:25:11.517Z,84.20
2017-07-24T01:27:45.796Z,85.50
2017-07-24T01:30:20.345Z,87.70
2017-07-24T01:32:53.936Z,87.60
2017-07-24T01:35:27.536Z,87.40
2017-07-24T01:38:01.121Z,86.60
2017-07-24T01:40:34.756Z,85.60
2017-07-24T01:43:08.309Z,84.80
2017-07-24T01:45:41.845Z,86.50
2017-07-24T01:48:15.389Z,85.50
2017-07-24T01:50:49.748Z,85.80
2017-07-24T01:53:23.334Z,85.80
2017-07-24T01:55:56.950Z,84.60
2017-07-24T01:58:30.563Z,84.20
2017-07-24T02:01:04.376Z,84.10
2017-07-24T02:03:37.960Z,84.30
2017-07-24T02:06:12.479Z,86.20
2017-07-24T02:08:46.229Z,86.10
2017-07-24T02:11:19.765Z,86.40
2017-07-24T02:13:53.396Z,86.10
2017-07-24T02:16:27.993Z,84.30
2017-07-24T02:19:01.755Z,84.30
2017-07-24T02:21:36.138Z,84.90
2017-07-24T02:24:09.921Z,85.80
2017-07-24T02:26:43.649Z,86.40
2017-07-24T02:29:17.249Z,85.80
2017-07-24T02:31:50.817Z,86.30
2017-07-24T02:34:24.376Z,86.50
2017-07-24T02:36:58.037Z,86.00
2017-07-24T02:39:31.561Z,86.30
2017-07-24T02:42:05.327Z,85.10
2017-07-24T02:44:38.948Z,85.10
2017-07-24T02:47:12.572Z,84.60
2017-07-24T02:49:46.222Z,84.90
2017-07-24T02:52:19.814Z,85.50
2017-07-24T02:54:53.376Z,84.60
2017-07-24T02:57:26.945Z,85.80
2017-07-24T03:00:01.365Z,85.40
2017-07-24T03:02:35.056Z,85.30
2017-07-24T03:05:08.951Z,84.70
2017-07-24T03:07:42.716Z,84.60
2017-07-24T03:10:16.324Z,85.30
2017-07-24T03:12:50.085Z,85.90
2017-07-24T03:15:23.667Z,85.80
2017-07-24T03:17:57.206Z,85.60
2017-07-24T03:20:30.860Z,85.30
2017-07-24T03:23:04.416Z,84.60
2017-07-24T03:25:37.980Z,84.40
2017-07-24T03:28:11.613Z,84.70
2017-07-24T03:30:45.170Z,85.10
2017-07-24T03:33:18.756Z,84.60
2017-07-24T03:35:52.356Z,84.90
2017-07-24T03:38:25.951Z,84.80
2017-07-24T03:40:59.461Z,85.20
2017-07-24T03:43:33.072Z,84.50
2017-07-24T03:46:06.564Z,84.60
2017-07-24T03:48:40.180Z,85.20
2017-07-24T03:51:13.805Z,84.60
2017-07-24T03:53:47.453Z,84.50
2017-07-24T03:56:21.070Z,85.00
2017-07-24T03:58:55.373Z,85.20
2017-07-24T04:01:29.217Z,85.10
2017-07-24T04:04:02.893Z,85.30
2017-07-24T04:06:36.416Z,86.10
2017-07-24T04:09:10.081Z,86.30
2017-07-24T04:11:43.629Z,86.10
2017-07-24T04:14:17.313Z,85.90
2017-07-24T04:16:50.908Z,86.30
2017-07-24T04:19:24.741Z,86.60
2017-07-24T04:21:58.309Z,86.30
2017-07-24T04:24:34.783Z,85.60
2017-07-24T04:27:08.494Z,86.40
2017-07-24T04:29:42.236Z,86.10
2017-07-24T04:32:16.185Z,86.50
2017-07-24T04:34:50.321Z,86.30
2017-07-24T04:37:24.832Z,86.30
2017-07-24T04:39:58.609Z,86.70
2017-07-24T04:42:32.803Z,86.10
2017-07-24T04:45:07.159Z,86.70
2017-07-24T04:47:41.111Z,86.60
2017-07-24T04:50:14.773Z,86.80
2017-07-24T04:52:48.346Z,86.60
2017-07-24T04:55:22.061Z,87.00
2017-07-24T04:57:55.666Z,87.90
2017-07-24T05:00:29.208Z,88.00
2017-07-24T05:03:02.729Z,87.50
2017-07-24T05:05:36.378Z,87.20
2017-07-24T05:08:10.188Z,87.80
2017-07-24T05:10:43.809Z,87.10
2017-07-24T05:13:17.596Z,86.60
2017-07-24T05:15:51.914Z,86.50
2017-07-24T05:18:25.680Z,86.40
2017-07-24T05:20:59.210Z,87.10
2017-07-24T05:23:32.736Z,86.80
2017-07-24T05:26:06.289Z,87.00
2017-07-24T05:28:39.993Z,87.40
2017-07-24T05:31:13.884Z,87.30
2017-07-24T05:33:48.229Z,87.40
2017-07-24T05:36:22.709Z,87.10
2017-07-24T05:38:56.269Z,87.00
2017-07-24T05:41:30.009Z,86.10
2017-07-24T05:44:03.829Z,86.20
2017-07-24T05:46:37.358Z,86.60
2017-07-24T05:49:10.929Z,86.90
2017-07-24T05:51:44.473Z,86.40
2017-07-24T05:54:18.045Z,86.90
2017-07-24T05:56:51.632Z,86.70
2017-07-24T05:59:25.948Z,86.70
2017-07-24T06:01:59.496Z,86.70
2017-07-24T06:04:33.293Z,86.20
2017-07-24T06:07:06.856Z,86.30
2017-07-24T06:09:41.366Z,85.80
2017-07-24T06:12:15.796Z,86.90
2017-07-24T06:14:49.449Z,86.90
2017-07-24T06:17:22.997Z,87.90
2017-07-24T06:19:56.588Z,87.30
2017-07-24T06:22:30.205Z,87.10
2017-07-24T06:25:03.741Z,87.10
2017-07-24T06:27:38.142Z,87.30
2017-07-24T06:30:11.789Z,87.30
2017-07-24T06:32:45.357Z,86.20
2017-07-24T06:35:19.147Z,86.40
2017-07-24T06:37:52.791Z,86.50
2017-07-24T06:40:26.296Z,86.10
2017-07-24T06:42:59.861Z,86.10
2017-07-24T06:45:33.569Z,85.70
2017-07-24T06:48:07.220Z,86.10
2017-07-24T06:50:40.956Z,84.90
2017-07-24T06:53:14.617Z,85.80
2017-07-24T06:55:48.228Z,85.30
2017-07-24T06:58:21.832Z,85.40
2017-07-24T07:00:55.422Z,85.40
2017-07-24T07:03:29.965Z,87.40
2017-07-24T07:06:03.597Z,87.30
2017-07-24T07:08:37.384Z,86.90
2017-07-24T07:11:10.980Z,87.20
2017-07-24T07:13:44.568Z,86.40
2017-07-24T07:16:18.128Z,86.70
2017-07-24T07:18:51.679Z,86.30
2017-07-24T07:21:26.061Z,85.40
2017-07-24T07:24:00.605Z,86.70
2017-07-24T07:26:34.349Z,86.60
2017-07-24T07:29:08.048Z,87.00
2017-07-24T07:31:41.625Z,86.50
2017-07-24T07:34:15.493Z,87.10
2017-07-24T07:36:49.016Z,87.50
2017-07-24T07:39:22.580Z,87.00
2017-07-24T07:41:56.223Z,87.40
2017-07-24T07:44:30.510Z,87.30
2017-07-24T07:47:05.065Z,88.00
2017-07-24T07:49:39.557Z,89.10
2017-07-24T07:52:13.170Z,89.00
2017-07-24T07:54:46.717Z,90.20
2017-07-24T07:57:20.380Z,90.50
2017-07-24T07:59:53.993Z,90.20
2017-07-24T08:02:27.574Z,90.60
2017-07-24T08:05:01.201Z,90.30
2017-07-24T08:07:34.996Z,90.80
2017-07-24T08:10:08.593Z,90.80
2017-07-24T08:12:42.197Z,90.90
2017-07-24T08:15:15.720Z,90.60
2017-07-24T08:17:49.282Z,90.70
2017-07-24T08:20:22.861Z,90.60
2017-07-24T08:22:56.603Z,90.30
2017-07-24T08:25:30.341Z,90.30
2017-07-24T08:28:04.695Z,89.20
2017-07-24T08:30:39.117Z,89.50
2017-07-24T08:33:12.789Z,89.50
2017-07-24T08:35:46.386Z,89.60
2017-07-24T08:38:19.906Z,89.40
2017-07-24T08:40:53.528Z,89.50
2017-07-24T08:43:28.636Z,90.00
2017-07-24T08:46:02.293Z,90.00
2017-07-24T08:48:35.840Z,90.10
2017-07-24T08:51:09.461Z,89.80
2017-07-24T08:53:43.053Z,90.10
2017-07-24T08:56:16.668Z,90.20
2017-07-24T08:58:50.261Z,90.40
2017-07-24T09:01:23.864Z,90.00
2017-07-24T09:03:57.418Z,90.20
2017-07-24T09:06:31.086Z,90.20
2017-07-24T09:09:04.700Z,89.20
2017-07-24T09:11:38.392Z,88.40
2017-07-24T09:14:11.937Z,89.60
2017-07-24T09:16:45.557Z,88.80
2017-07-24T09:19:19.145Z,88.20
2017-07-24T09:21:53.488Z,88.10
2017-07-24T09:24:27.055Z,88.00
2017-07-24T09:27:00.688Z,87.70
2017-07-24T09:29:35.276Z,88.10
2017-07-24T09:32:09.038Z,88.00
2017-07-24T09:34:43.508Z,88.10
2017-07-24T09:37:17.243Z,88.00
2017-07-24T09:39:50.812Z,86.90
2017-07-24T09:42:24.436Z,87.60
2017-07-24T09:44:59.245Z,89.20
2017-07-24T09:47:33.024Z,89.20
2017-07-24T09:50:07.465Z,84.70
2017-07-24T09:52:41.265Z,84.70
2017-07-24T09:55:14.881Z,87.20
2017-07-24T09:57:50.868Z,87.80
2017-07-24T10:00:24.917Z,87.80
2017-07-24T10:02:58.576Z,86.70
2017-07-24T10:05:32.201Z,86.20
2017-07-24T10:08:05.871Z,88.10
2017-07-24T10:10:39.432Z,86.20
2017-07-24T10:13:12.980Z,85.80
2017-07-24T10:15:49.169Z,87.50
2017-07-24T10:18:22.733Z,86.80
2017-07-24T10:20:57.948Z,87.60
2017-07-24T10:23:31.557Z,87.10
2017-07-24T10:26:05.052Z,86.60
2017-07-24T10:28:38.673Z,87.70
2017-07-24T10:31:12.300Z,86.40
2017-07-24T10:33:45.861Z,87.70
2017-07-24T10:36:19.456Z,88.80
2017-07-24T10:38:53.149Z,87.00
2017-07-24T10:41:26.936Z,86.20
2017-07-24T10:44:00.526Z,86.60
2017-07-24T10:46:34.140Z,86.90
2017-07-24T10:49:07.767Z,87.20
2017-07-24T10:51:41.528Z,86.70
2017-07-24T10:54:15.077Z,86.80
2017-07-24T10:56:48.642Z,86.50
2017-07-24T10:59:22.257Z,87.50
2017-07-24T11:01:55.849Z,87.80
2017-07-24T11:04:29.461Z,87.40
2017-07-24T11:07:03.015Z,87.10
2017-07-24T11:09:36.669Z,86.60
2017-07-24T11:12:10.292Z,86.30
2017-07-24T11:14:43.804Z,87.70
2017-07-24T11:17:17.341Z,87.20
2017-07-24T11:19:50.889Z,88.40
2017-07-24T11:22:24.457Z,87.30
2017-07-24T11:24:58.040Z,88.40
2017-07-24T11:27:31.577Z,86.10
2017-07-24T11:30:05.137Z,86.60
2017-07-24T11:32:38.713Z,86.30
2017-07-24T11:35:12.298Z,87.50
2017-07-24T11:37:46.065Z,88.70
2017-07-24T11:40:19.657Z,87.70
2017-07-24T11:42:53.420Z,87.40
2017-07-24T11:45:28.069Z,88.80
2017-07-24T11:48:01.648Z,88.80
2017-07-24T11:50:35.288Z,87.90
2017-07-24T11:53:08.872Z,87.40
2017-07-24T11:55:42.469Z,88.20
2017-07-24T11:58:16.068Z,88.80
2017-07-24T12:00:49.689Z,89.40
2017-07-24T12:03:23.272Z,88.80
2017-07-24T12:05:56.796Z,88.20
2017-07-24T12:08:30.385Z,87.30
2017-07-24T12:11:03.991Z,88.50
2017-07-24T12:13:37.745Z,86.40
2017-07-24T12:16:12.093Z,87.40
2017-07-24T12:18:45.833Z,87.40
2017-07-24T12:21:19.405Z,88.20
2017-07-24T12:23:53.196Z,88.30
2017-07-24T12:26:26.820Z,87.60
2017-07-24T12:29:01.128Z,88.10
2017-07-24T12:31:35.146Z,88.00
2017-07-24T12:34:08.812Z,88.40
2017-07-24T12:36:42.453Z,89.40
2017-07-24T12:39:16.013Z,90.00
2017-07-24T12:41:49.573Z,88.70
2017-07-24T12:44:23.228Z,88.90
2017-07-24T12:46:56.829Z,88.80
2017-07-24T12:49:30.405Z,89.80
2017-07-24T12:52:03.952Z,88.90
2017-07-24T12:54:37.695Z,88.20
2017-07-24T12:57:11.357Z,88.80
2017-07-24T12:59:44.948Z,89.10
2017-07-24T13:02:18.548Z,89.50
2017-07-24T13:04:53.156Z,89.90
2017-07-24T13:07:26.885Z,89.90
2017-07-24T13:10:00.573Z,89.50
2017-07-24T13:12:34.068Z,90.00
2017-07-24T13:15:07.676Z,89.60
2017-07-24T13:17:41.512Z,90.00
2017-07-24T13:20:15.978Z,90.10
2017-07-24T13:22:49.804Z,90.00
2017-07-24T13:25:24.317Z,90.50
2017-07-24T13:27:57.821Z,87.70
2017-07-24T13:30:31.628Z,87.70
2017-07-24T13:33:05.245Z,87.60
2017-07-24T13:35:38.752Z,86.80
2017-07-24T13:38:12.437Z,87.10
2017-07-24T13:40:46.015Z,86.00
2017-07-24T13:43:20.093Z,83.90
2017-07-24T13:45:53.777Z,85.20
2017-07-24T13:48:27.443Z,85.30
2017-07-24T13:51:01.134Z,85.10
2017-07-24T13:53:34.671Z,85.70
2017-07-24T13:56:08.408Z,84.60
2017-07-24T13:58:42.072Z,85.50
2017-07-24T14:01:16.660Z,84.80
2017-07-24T14:03:50.383Z,84.60
2017-07-24T14:06:24.272Z,85.40
2017-07-24T14:08:58.583Z,84.80
2017-07-24T14:11:32.245Z,84.60
2017-07-24T14:14:05.896Z,85.60
2017-07-24T14:16:39.485Z,85.20
2017-07-24T14:19:13.799Z,83.50
2017-07-24T14:21:47.508Z,83.90
2017-07-24T14:24:21.849Z,84.50
2017-07-24T14:26:55.505Z,84.40
2017-07-24T14:29:29.856Z,84.00
2017-07-24T14:32:03.557Z,83.90
2017-07-24T14:34:37.969Z,83.50
2017-07-24T14:37:12.213Z,83.40
2017-07-24T14:39:46.606Z,83.50
2017-07-24T14:42:20.300Z,83.50
2017-07-24T14:44:55.898Z,83.30
2017-07-24T14:47:29.571Z,83.20
2017-07-24T14:50:03.157Z,82.90
2017-07-24T14:52:37.661Z,83.90
2017-07-24T14:55:11.417Z,83.80
2017-07-24T14:57:45.996Z,84.50
2017-07-24T15:00:19.756Z,84.50
2017-07-24T15:02:53.433Z,85.20
2017-07-24T15:05:26.989Z,86.90
2017-07-24T15:08:00.652Z,82.90
2017-07-24T15:10:35.141Z,83.80
2017-07-24T15:13:09.645Z,84.20
2017-07-24T15:15:43.311Z,84.20
2017-07-24T15:18:17.206Z,85.60
2017-07-24T15:20:50.933Z,86.00
2017-07-24T15:23:24.853Z,84.30
2017-07-24T15:25:59.312Z,84.70
2017-07-24T15:28:33.050Z,84.70
2017-07-24T15:31:06.833Z,83.80
2017-07-24T15:33:40.391Z,84.80
2017-07-24T15:36:13.982Z,84.50
2017-07-24T15:38:48.312Z,83.10
2017-07-24T15:41:22.056Z,83.10
2017-07-24T15:43:56.364Z,83.80
2017-07-24T15:46:30.073Z,82.90
2017-07-24T15:49:03.609Z,81.90
2017-07-24T15:51:37.230Z,81.10
2017-07-24T15:54:10.793Z,81.50
2017-07-24T15:56:44.468Z,82.40
2017-07-24T15:59:18.249Z,80.00
2017-07-24T16:01:51.813Z,81.70
2017-07-24T16:04:25.589Z,81.90
2017-07-24T16:06:59.181Z,81.70
2017-07-24T16:09:32.725Z,80.00
2017-07-24T16:12:06.294Z,79.10
2017-07-24T16:14:39.931Z,79.60
2017-07-24T16:17:13.535Z,79.70
2017-07-24T16:19:47.013Z,79.20
2017-07-24T16:22:20.648Z,79.60
2017-07-24T16:24:54.221Z,80.00
2017-07-24T16:27:28.785Z,80.60
2017-07-24T16:30:02.418Z,80.50
2017-07-24T16:32:36.060Z,80.80
2017-07-24T16:35:09.675Z,80.40
2017-07-24T16:37:44.275Z,81.50
2017-07-24T16:40:18.016Z,81.50
2017-07-24T16:42:51.567Z,82.30
2017-07-24T16:45:25.207Z,82.20
2017-07-24T16:47:58.801Z,82.30
2017-07-24T16:50:32.328Z,82.90
2017-07-24T16:53:05.937Z,83.20
2017-07-24T16:55:39.565Z,82.50
2017-07-24T16:58:13.316Z,82.00
2017-07-24T17:00:46.930Z,81.20
2017-07-24T17:03:20.854Z,79.70
2017-07-24T17:05:54.413Z,81.50
2017-07-24T17:08:28.052Z,81.00
2017-07-24T17:11:02.058Z,80.10
2017-07-24T17:13:35.725Z,79.30
2017-07-24T17:16:10.325Z,81.10
2017-07-24T17:18:44.885Z,81.20
2017-07-24T17:21:18.545Z,81.10
2017-07-24T17:23:52.084Z,81.60
2017-07-24T17:26:25.657Z,82.20
2017-07-24T17:28:59.398Z,81.90
2017-07-24T17:31:32.970Z,81.90
2017-07-24T17:34:06.756Z,81.30
2017-07-24T17:36:41.376Z,81.70
2017-07-24T17:39:14.956Z,80.80
2017-07-24T17:41:48.607Z,80.70
2017-07-24T17:44:23.001Z,81.00
2017-07-24T17:46:57.508Z,82.00
2017-07-24T17:49:31.176Z,82.10
2017-07-24T17:52:04.845Z,81.90
2017-07-24T17:54:38.422Z,81.70
2017-07-24T17:57:11.976Z,81.10
2017-07-24T17:59:45.543Z,82.30
2017-07-24T18:02:19.141Z,81.60
2017-07-24T18:04:52.661Z,81.10
2017-07-24T18:07:26.398Z,80.50
2017-07-24T18:09:59.917Z,79.80
2017-07-24T18:12:33.473Z,79.40
2017-07-24T18:17:42.712Z,75.00
2017-07-24T18:20:16.498Z,75.00
2017-07-24T18:22:50.825Z,74.60
2017-07-24T18:25:24.498Z,74.70
2017-07-24T18:27:58.093Z,75.00
2017-07-24T18:30:32.436Z,75.50
2017-07-24T18:33:06.226Z,75.60
2017-07-24T18:35:39.833Z,76.20
2017-07-24T18:38:13.333Z,76.10
2017-07-24T18:40:51.618Z,75.60
2017-07-24T18:43:25.300Z,76.70
2017-07-24T18:45:59.116Z,76.90
2017-07-24T18:48:32.829Z,77.20
2017-07-24T18:51:07.453Z,77.30
2017-07-24T18:53:41.097Z,77.30
2017-07-24T18:56:14.655Z,77.20
2017-07-24T18:58:48.188Z,77.90
2017-07-24T19:01:21.814Z,76.50
2017-07-24T19:03:58.272Z,76.70
2017-07-24T19:06:33.064Z,76.60
2017-07-24T19:09:06.666Z,76.50
2017-07-24T19:11:40.203Z,77.00
2017-07-24T19:14:15.188Z,76.20
2017-07-24T19:16:48.896Z,77.00
2017-07-24T19:19:22.860Z,76.80
2017-07-24T19:21:56.488Z,75.90
2017-07-24T19:24:30.125Z,76.60
2017-07-24T19:27:03.865Z,75.50
2017-07-24T19:29:37.473Z,75.90
2017-07-24T19:32:11.149Z,75.00
2017-07-24T19:34:44.957Z,75.90
2017-07-24T19:37:18.543Z,76.60
2017-07-24T19:39:52.114Z,78.00
2017-07-24T19:42:25.686Z,78.10
2017-07-24T19:44:59.193Z,78.70
2017-07-24T19:47:33.545Z,80.00
2017-07-24T19:50:07.271Z,79.90
2017-07-24T19:52:41.314Z,80.60
2017-07-24T19:55:15.881Z,80.80
2017-07-24T19:57:49.377Z,80.70
2017-07-24T20:00:22.969Z,80.40
2017-07-24T20:02:56.589Z,81.50
2017-07-24T20:05:30.205Z,81.40
2017-07-24T20:08:04.688Z,81.10
2017-07-24T20:10:38.365Z,81.00
2017-07-24T20:13:12.093Z,82.10
2017-07-24T20:15:45.737Z,82.20
2017-07-24T20:18:19.425Z,81.30
2017-07-24T20:20:52.980Z,81.60
2017-07-24T20:23:26.537Z,82.40
2017-07-24T20:26:00.212Z,81.30
2017-07-24T20:28:33.728Z,80.50
2017-07-24T20:31:07.287Z,80.00
2017-07-24T20:33:41.009Z,80.60
2017-07-24T20:36:14.681Z,80.00
2017-07-24T20:38:50.868Z,79.50
2017-07-24T20:41:24.618Z,79.10
2017-07-24T20:43:58.277Z,79.00
2017-07-24T20:46:31.841Z,78.90
2017-07-24T20:49:05.433Z,78.50
2017-07-24T20:51:39.029Z,78.80
2017-07-24T20:54:12.676Z,78.70
2017-07-24T20:56:46.979Z,78.80
2017-07-24T20:59:21.525Z,78.40
2017-07-24T21:01:56.034Z,78.90
2017-07-24T21:04:29.689Z,78.60
2017-07-24T21:07:03.332Z,80.00
2017-07-24T21:09:37.701Z,79.80
2017-07-24T21:12:11.405Z,79.70
2017-07-24T21:14:44.937Z,80.40
2017-07-24T21:17:19.290Z,80.60
2017-07-24T21:19:53.170Z,80.40
2017-07-24T21:22:26.656Z,79.60
2017-07-24T21:25:00.308Z,80.10
2017-07-24T21:27:33.988Z,80.50
2017-07-24T21:30:07.585Z,80.80
2017-07-24T21:32:41.148Z,80.20
2017-07-24T21:35:14.768Z,79.40
2017-07-24T21:37:48.420Z,80.20
2017-07-24T21:40:22.196Z,80.20
2017-07-24T21:42:55.856Z,80.30
2017-07-24T21:45:29.489Z,80.20
2017-07-24T21:48:03.279Z,79.60
2017-07-24T21:50:36.791Z,79.50
2017-07-24T21:53:10.390Z,79.50
2017-07-24T21:55:44.757Z,80.60
2017-07-24T21:58:18.374Z,80.50
2017-07-24T22:00:51.926Z,79.60
2017-07-24T22:03:25.477Z,80.50
2017-07-24T22:05:59.128Z,80.00
2017-07-24T22:08:32.977Z,79.60
2017-07-24T22:11:06.646Z,80.00
2017-07-24T22:13:40.320Z,80.20
2017-07-24T22:16:13.945Z,79.20
2017-07-24T22:18:48.427Z,79.50
2017-07-24T22:21:23.188Z,78.80
2017-07-24T22:23:56.913Z,78.60
2017-07-24T22:26:30.618Z,79.30
2017-07-24T22:29:04.212Z,79.10
2017-07-24T22:31:37.786Z,78.30
2017-07-24T22:34:11.421Z,78.30
2017-07-24T22:36:45.169Z,78.50
2017-07-24T22:39:18.800Z,78.40
2017-07-24T22:41:52.389Z,78.60
2017-07-24T22:44:25.940Z,79.70
2017-07-24T22:46:59.633Z,80.70
2017-07-24T22:49:33.309Z,80.90
2017-07-24T22:52:06.906Z,81.70
2017-07-24T22:54:40.470Z,81.70
2017-07-24T22:57:14.061Z,82.70
2017-07-24T22:59:48.697Z,84.60
2017-07-24T23:02:22.416Z,84.40
2017-07-24T23:04:55.975Z,84.80
2017-07-24T23:07:29.477Z,85.10
2017-07-24T23:10:03.029Z,85.00
2017-07-24T23:12:36.822Z,85.10
2017-07-24T23:15:10.433Z,84.50
2017-07-24T23:17:44.043Z,84.80
2017-07-24T23:20:17.836Z,84.20
2017-07-24T23:22:51.424Z,84.10
2017-07-24T23:25:25.021Z,85.10
2017-07-24T23:27:58.548Z,83.80
2017-07-24T23:30:32.401Z,84.00
2017-07-24T23:33:06.058Z,83.30
2017-07-24T23:35:39.660Z,83.50
2017-07-24T23:38:13.249Z,83.00
2017-07-24T23:40:48.726Z,82.80
2017-07-24T23:43:22.469Z,82.80
2017-07-24T23:45:56.166Z,83.60
2017-07-24T23:48:37.209Z,82.50
2017-07-24T23:51:10.788Z,83.10
2017-07-24T23:53:44.403Z,83.50
2017-07-24T23:56:18.067Z,83.10
2017-07-24T23:58:51.864Z,83.80
